sensor_id;sensor_type;location;lat;lon;timestamp;P1;durP1;ratioP1;P2;durP2;ratioP2
40541;SDS011;49288;52.194;5.676;2023-03-05T00:01:56;9.63;;;2.88;;
40541;SDS011;49288;52.194;5.676;2023-03-05T00:06:59;20.42;;;4.60;;
40541;SDS011;49288;52.194;5.676;2023-03-05T00:12:02;11.05;;;3.08;;
40541;SDS011;49288;52.194;5.676;2023-03-05T00:17:06;11.67;;;3.00;;
40541;SDS011;49288;52.194;5.676;2023-03-05T00:22:09;8.90;;;3.17;;
40541;SDS011;49288;52.194;5.676;2023-03-05T00:27:11;15.20;;;3.42;;
40541;SDS011;49288;52.194;5.676;2023-03-05T00:32:16;10.80;;;2.88;;
40541;SDS011;49288;52.194;5.676;2023-03-05T00:37:20;12.35;;;2.70;;
40541;SDS011;49288;52.194;5.676;2023-03-05T00:42:22;10.88;;;3.60;;
40541;SDS011;49288;52.194;5.676;2023-03-05T00:47:25;7.38;;;3.05;;
40541;SDS011;49288;52.194;5.676;2023-03-05T00:52:29;9.00;;;3.33;;
40541;SDS011;49288;52.194;5.676;2023-03-05T00:57:32;13.23;;;3.63;;
40541;SDS011;49288;52.194;5.676;2023-03-05T01:02:36;8.50;;;3.23;;
40541;SDS011;49288;52.194;5.676;2023-03-05T01:07:39;5.82;;;2.80;;
40541;SDS011;49288;52.194;5.676;2023-03-05T01:12:42;9.90;;;2.88;;
40541;SDS011;49288;52.194;5.676;2023-03-05T01:17:45;14.70;;;3.97;;
40541;SDS011;49288;52.194;5.676;2023-03-05T01:22:48;7.15;;;2.83;;
40541;SDS011;49288;52.194;5.676;2023-03-05T01:27:50;12.38;;;3.05;;
40541;SDS011;49288;52.194;5.676;2023-03-05T01:32:54;10.48;;;3.33;;
40541;SDS011;49288;52.194;5.676;2023-03-05T01:37:57;11.07;;;4.10;;
40541;SDS011;49288;52.194;5.676;2023-03-05T01:48:12;13.10;;;3.63;;
40541;SDS011;49288;52.194;5.676;2023-03-05T01:53:14;14.60;;;3.47;;
40541;SDS011;49288;52.194;5.676;2023-03-05T01:58:17;13.23;;;4.00;;
40541;SDS011;49288;52.194;5.676;2023-03-05T02:03:21;19.83;;;5.13;;
40541;SDS011;49288;52.194;5.676;2023-03-05T02:08:25;15.63;;;3.97;;
40541;SDS011;49288;52.194;5.676;2023-03-05T02:13:32;17.65;;;4.57;;
40541;SDS011;49288;52.194;5.676;2023-03-05T02:18:37;21.90;;;4.65;;
40541;SDS011;49288;52.194;5.676;2023-03-05T02:23:41;14.93;;;4.28;;
40541;SDS011;49288;52.194;5.676;2023-03-05T02:28:44;21.98;;;4.55;;
40541;SDS011;49288;52.194;5.676;2023-03-05T02:33:51;15.50;;;3.95;;
40541;SDS011;49288;52.194;5.676;2023-03-05T02:44:00;14.18;;;4.35;;
40541;SDS011;49288;52.194;5.676;2023-03-05T02:49:03;22.67;;;5.20;;
40541;SDS011;49288;52.194;5.676;2023-03-05T02:54:10;16.60;;;4.47;;
40541;SDS011;49288;52.194;5.676;2023-03-05T02:59:14;14.40;;;5.05;;
40541;SDS011;49288;52.194;5.676;2023-03-05T03:04:17;16.55;;;4.65;;
40541;SDS011;49288;52.194;5.676;2023-03-05T03:09:21;19.33;;;4.13;;
40541;SDS011;49288;52.194;5.676;2023-03-05T03:14:24;17.15;;;4.05;;
40541;SDS011;49288;52.194;5.676;2023-03-05T03:19:27;14.57;;;4.10;;
40541;SDS011;49288;52.194;5.676;2023-03-05T03:24:30;21.17;;;4.95;;
40541;SDS011;49288;52.194;5.676;2023-03-05T03:29:35;13.52;;;3.97;;
40541;SDS011;49288;52.194;5.676;2023-03-05T03:34:38;11.68;;;4.50;;
40541;SDS011;49288;52.194;5.676;2023-03-05T03:39:40;14.68;;;3.63;;
40541;SDS011;49288;52.194;5.676;2023-03-05T03:44:43;9.82;;;3.72;;
40541;SDS011;49288;52.194;5.676;2023-03-05T03:49:46;17.27;;;3.95;;
40541;SDS011;49288;52.194;5.676;2023-03-05T03:54:49;10.50;;;4.18;;
40541;SDS011;49288;52.194;5.676;2023-03-05T03:59:55;8.07;;;3.53;;
40541;SDS011;49288;52.194;5.676;2023-03-05T04:05:00;12.05;;;4.47;;
40541;SDS011;49288;52.194;5.676;2023-03-05T04:10:03;16.88;;;4.43;;
40541;SDS011;49288;52.194;5.676;2023-03-05T04:15:06;14.18;;;5.55;;
40541;SDS011;49288;52.194;5.676;2023-03-05T04:20:09;12.52;;;4.50;;
40541;SDS011;49288;52.194;5.676;2023-03-05T04:25:12;17.90;;;4.88;;
40541;SDS011;49288;52.194;5.676;2023-03-05T04:30:15;13.77;;;5.60;;
40541;SDS011;49288;52.194;5.676;2023-03-05T04:35:19;23.10;;;7.80;;
40541;SDS011;49288;52.194;5.676;2023-03-05T04:40:24;22.77;;;6.38;;
40541;SDS011;49288;52.194;5.676;2023-03-05T04:45:27;10.20;;;4.68;;
40541;SDS011;49288;52.194;5.676;2023-03-05T04:50:29;22.48;;;6.78;;
40541;SDS011;49288;52.194;5.676;2023-03-05T04:55:32;13.35;;;6.38;;
40541;SDS011;49288;52.194;5.676;2023-03-05T05:00:53;15.05;;;4.65;;
40541;SDS011;49288;52.194;5.676;2023-03-05T05:05:57;12.52;;;5.50;;
40541;SDS011;49288;52.194;5.676;2023-03-05T05:11:01;11.48;;;4.18;;
40541;SDS011;49288;52.194;5.676;2023-03-05T05:16:06;18.30;;;5.82;;
40541;SDS011;49288;52.194;5.676;2023-03-05T05:21:11;16.90;;;5.72;;
40541;SDS011;49288;52.194;5.676;2023-03-05T05:26:14;14.63;;;6.80;;
40541;SDS011;49288;52.194;5.676;2023-03-05T05:31:17;16.10;;;5.90;;
40541;SDS011;49288;52.194;5.676;2023-03-05T05:36:22;11.90;;;5.40;;
40541;SDS011;49288;52.194;5.676;2023-03-05T05:41:25;19.52;;;6.05;;
40541;SDS011;49288;52.194;5.676;2023-03-05T05:46:33;11.20;;;5.32;;
40541;SDS011;49288;52.194;5.676;2023-03-05T05:51:37;15.65;;;5.45;;
40541;SDS011;49288;52.194;5.676;2023-03-05T05:56:40;12.77;;;6.10;;
40541;SDS011;49288;52.194;5.676;2023-03-05T06:01:43;14.48;;;5.90;;
40541;SDS011;49288;52.194;5.676;2023-03-05T06:06:46;18.85;;;6.18;;
40541;SDS011;49288;52.194;5.676;2023-03-05T06:11:49;15.02;;;6.50;;
40541;SDS011;49288;52.194;5.676;2023-03-05T06:16:52;16.58;;;5.68;;
40541;SDS011;49288;52.194;5.676;2023-03-05T06:21:54;15.85;;;6.32;;
40541;SDS011;49288;52.194;5.676;2023-03-05T06:26:59;23.05;;;7.45;;
40541;SDS011;49288;52.194;5.676;2023-03-05T06:32:02;13.77;;;6.93;;
40541;SDS011;49288;52.194;5.676;2023-03-05T06:37:05;11.20;;;5.75;;
40541;SDS011;49288;52.194;5.676;2023-03-05T06:42:08;15.15;;;6.00;;
40541;SDS011;49288;52.194;5.676;2023-03-05T06:47:11;28.63;;;7.13;;
40541;SDS011;49288;52.194;5.676;2023-03-05T06:52:13;13.70;;;5.82;;
40541;SDS011;49288;52.194;5.676;2023-03-05T06:57:16;14.05;;;5.75;;
40541;SDS011;49288;52.194;5.676;2023-03-05T07:02:18;25.80;;;6.40;;
40541;SDS011;49288;52.194;5.676;2023-03-05T07:07:21;14.65;;;6.85;;
40541;SDS011;49288;52.194;5.676;2023-03-05T07:12:24;13.95;;;6.60;;
40541;SDS011;49288;52.194;5.676;2023-03-05T07:17:26;16.95;;;7.47;;
40541;SDS011;49288;52.194;5.676;2023-03-05T07:22:29;22.20;;;7.18;;
40541;SDS011;49288;52.194;5.676;2023-03-05T07:27:36;28.65;;;8.60;;
40541;SDS011;49288;52.194;5.676;2023-03-05T07:32:40;21.85;;;9.82;;
40541;SDS011;49288;52.194;5.676;2023-03-05T07:37:43;28.25;;;9.00;;
40541;SDS011;49288;52.194;5.676;2023-03-05T07:42:47;25.00;;;9.87;;
40541;SDS011;49288;52.194;5.676;2023-03-05T07:48:02;24.02;;;10.25;;
40541;SDS011;49288;52.194;5.676;2023-03-05T07:53:05;25.30;;;10.45;;
40541;SDS011;49288;52.194;5.676;2023-03-05T08:03:12;24.98;;;8.90;;
40541;SDS011;49288;52.194;5.676;2023-03-05T08:08:16;29.20;;;8.67;;
40541;SDS011;49288;52.194;5.676;2023-03-05T08:13:19;16.08;;;7.38;;
40541;SDS011;49288;52.194;5.676;2023-03-05T08:18:23;19.45;;;7.60;;
40541;SDS011;49288;52.194;5.676;2023-03-05T08:23:26;22.13;;;6.82;;
40541;SDS011;49288;52.194;5.676;2023-03-05T08:28:29;17.87;;;6.37;;
40541;SDS011;49288;52.194;5.676;2023-03-05T08:33:35;26.45;;;6.22;;
40541;SDS011;49288;52.194;5.676;2023-03-05T08:38:38;10.27;;;5.55;;
40541;SDS011;49288;52.194;5.676;2023-03-05T08:43:41;13.30;;;5.30;;
40541;SDS011;49288;52.194;5.676;2023-03-05T08:48:44;15.75;;;4.70;;
40541;SDS011;49288;52.194;5.676;2023-03-05T08:53:47;10.85;;;4.60;;
40541;SDS011;49288;52.194;5.676;2023-03-05T08:58:50;11.90;;;5.28;;
40541;SDS011;49288;52.194;5.676;2023-03-05T09:03:54;12.77;;;4.97;;
40541;SDS011;49288;52.194;5.676;2023-03-05T09:08:56;12.02;;;4.95;;
40541;SDS011;49288;52.194;5.676;2023-03-05T09:14:02;11.60;;;4.22;;
40541;SDS011;49288;52.194;5.676;2023-03-05T09:19:06;14.00;;;4.30;;
40541;SDS011;49288;52.194;5.676;2023-03-05T09:24:12;12.55;;;4.75;;
40541;SDS011;49288;52.194;5.676;2023-03-05T09:29:15;9.13;;;4.05;;
40541;SDS011;49288;52.194;5.676;2023-03-05T09:34:17;13.13;;;3.85;;
40541;SDS011;49288;52.194;5.676;2023-03-05T09:39:20;11.82;;;3.70;;
40541;SDS011;49288;52.194;5.676;2023-03-05T09:44:34;8.57;;;3.88;;
40541;SDS011;49288;52.194;5.676;2023-03-05T09:54:54;10.52;;;3.80;;
40541;SDS011;49288;52.194;5.676;2023-03-05T09:59:58;13.23;;;3.78;;
40541;SDS011;49288;52.194;5.676;2023-03-05T10:05:14;11.23;;;3.78;;
40541;SDS011;49288;52.194;5.676;2023-03-05T10:10:25;13.40;;;3.22;;
40541;SDS011;49288;52.194;5.676;2023-03-05T10:15:31;11.82;;;3.72;;
40541;SDS011;49288;52.194;5.676;2023-03-05T10:26:38;6.93;;;2.20;;
40541;SDS011;49288;52.194;5.676;2023-03-05T10:47:38;8.23;;;2.08;;
40541;SDS011;49288;52.194;5.676;2023-03-05T10:58:12;5.20;;;1.60;;
40541;SDS011;49288;52.194;5.676;2023-03-05T11:03:16;7.80;;;1.92;;
40541;SDS011;49288;52.194;5.676;2023-03-05T11:08:30;6.80;;;1.85;;
40541;SDS011;49288;52.194;5.676;2023-03-05T11:13:38;8.07;;;1.70;;
40541;SDS011;49288;52.194;5.676;2023-03-05T11:18:42;6.13;;;1.85;;
40541;SDS011;49288;52.194;5.676;2023-03-05T11:39:20;9.07;;;1.35;;
40541;SDS011;49288;52.194;5.676;2023-03-05T11:49:51;2.75;;;1.20;;
40541;SDS011;49288;52.194;5.676;2023-03-05T11:55:06;4.40;;;1.30;;
40541;SDS011;49288;52.194;5.676;2023-03-05T12:00:15;4.18;;;1.10;;
40541;SDS011;49288;52.194;5.676;2023-03-05T12:05:20;4.50;;;1.48;;
40541;SDS011;49288;52.194;5.676;2023-03-05T12:10:26;6.05;;;1.40;;
40541;SDS011;49288;52.194;5.676;2023-03-05T12:26:09;2.22;;;1.10;;
40541;SDS011;49288;52.194;5.676;2023-03-05T12:31:33;2.53;;;1.20;;
40541;SDS011;49288;52.194;5.676;2023-03-05T12:36:39;3.83;;;1.30;;
40541;SDS011;49288;52.194;5.676;2023-03-05T12:41:42;17.80;;;3.17;;
40541;SDS011;49288;52.194;5.676;2023-03-05T12:52:23;4.82;;;1.65;;
40541;SDS011;49288;52.194;5.676;2023-03-05T12:57:27;8.57;;;2.70;;
40541;SDS011;49288;52.194;5.676;2023-03-05T13:07:42;10.77;;;1.20;;
40541;SDS011;49288;52.194;5.676;2023-03-05T13:12:49;3.13;;;1.00;;
40541;SDS011;49288;52.194;5.676;2023-03-05T13:18:02;4.40;;;1.40;;
40541;SDS011;49288;52.194;5.676;2023-03-05T13:23:20;7.23;;;1.60;;
40541;SDS011;49288;52.194;5.676;2023-03-05T13:28:42;3.85;;;1.20;;
40541;SDS011;49288;52.194;5.676;2023-03-05T13:34:09;5.93;;;1.40;;
40541;SDS011;49288;52.194;5.676;2023-03-05T13:39:20;6.50;;;1.92;;
40541;SDS011;49288;52.194;5.676;2023-03-05T13:44:26;11.85;;;1.70;;
40541;SDS011;49288;52.194;5.676;2023-03-05T13:49:30;1.95;;;0.80;;
40541;SDS011;49288;52.194;5.676;2023-03-05T13:54:34;5.87;;;1.40;;
40541;SDS011;49288;52.194;5.676;2023-03-05T13:59:36;2.30;;;1.02;;
40541;SDS011;49288;52.194;5.676;2023-03-05T14:04:43;5.90;;;1.70;;
40541;SDS011;49288;52.194;5.676;2023-03-05T14:09:47;4.53;;;1.20;;
40541;SDS011;49288;52.194;5.676;2023-03-05T14:14:51;1.80;;;1.00;;
40541;SDS011;49288;52.194;5.676;2023-03-05T14:20:55;5.88;;;1.52;;
40541;SDS011;49288;52.194;5.676;2023-03-05T14:30:29;2.63;;;1.08;;
40541;SDS011;49288;52.194;5.676;2023-03-05T14:35:33;6.03;;;1.60;;
40541;SDS011;49288;52.194;5.676;2023-03-05T14:40:36;3.13;;;1.30;;
40541;SDS011;49288;52.194;5.676;2023-03-05T14:45:40;5.13;;;1.52;;
40541;SDS011;49288;52.194;5.676;2023-03-05T14:50:52;4.35;;;1.48;;
40541;SDS011;49288;52.194;5.676;2023-03-05T14:55:58;3.42;;;1.27;;
40541;SDS011;49288;52.194;5.676;2023-03-05T15:01:00;10.73;;;1.80;;
40541;SDS011;49288;52.194;5.676;2023-03-05T15:06:05;6.00;;;1.60;;
40541;SDS011;49288;52.194;5.676;2023-03-05T15:11:10;10.43;;;1.70;;
40541;SDS011;49288;52.194;5.676;2023-03-05T15:16:14;6.47;;;2.05;;
40541;SDS011;49288;52.194;5.676;2023-03-05T15:21:17;6.37;;;1.87;;
40541;SDS011;49288;52.194;5.676;2023-03-05T15:26:20;5.90;;;1.90;;
40541;SDS011;49288;52.194;5.676;2023-03-05T15:31:23;6.57;;;1.63;;
40541;SDS011;49288;52.194;5.676;2023-03-05T15:36:27;6.93;;;1.87;;
40541;SDS011;49288;52.194;5.676;2023-03-05T15:41:32;7.28;;;1.90;;
40541;SDS011;49288;52.194;5.676;2023-03-05T15:46:35;7.13;;;2.45;;
40541;SDS011;49288;52.194;5.676;2023-03-05T15:51:39;7.57;;;2.17;;
40541;SDS011;49288;52.194;5.676;2023-03-05T15:56:42;3.65;;;1.88;;
40541;SDS011;49288;52.194;5.676;2023-03-05T16:01:49;5.25;;;2.33;;
40541;SDS011;49288;52.194;5.676;2023-03-05T16:06:53;6.65;;;2.85;;
40541;SDS011;49288;52.194;5.676;2023-03-05T16:11:57;6.10;;;2.60;;
40541;SDS011;49288;52.194;5.676;2023-03-05T16:17:00;7.78;;;2.78;;
40541;SDS011;49288;52.194;5.676;2023-03-05T16:22:06;4.68;;;2.50;;
40541;SDS011;49288;52.194;5.676;2023-03-05T16:27:09;6.22;;;3.35;;
40541;SDS011;49288;52.194;5.676;2023-03-05T16:32:15;6.78;;;3.45;;
40541;SDS011;49288;52.194;5.676;2023-03-05T16:37:20;11.85;;;4.20;;
40541;SDS011;49288;52.194;5.676;2023-03-05T16:42:24;7.95;;;3.30;;
40541;SDS011;49288;52.194;5.676;2023-03-05T16:47:27;8.15;;;3.53;;
40541;SDS011;49288;52.194;5.676;2023-03-05T16:52:30;6.00;;;2.97;;
40541;SDS011;49288;52.194;5.676;2023-03-05T16:57:33;9.73;;;4.40;;
40541;SDS011;49288;52.194;5.676;2023-03-05T17:02:36;10.38;;;4.40;;
40541;SDS011;49288;52.194;5.676;2023-03-05T17:07:38;9.93;;;3.80;;
40541;SDS011;49288;52.194;5.676;2023-03-05T17:12:41;10.65;;;4.47;;
40541;SDS011;49288;52.194;5.676;2023-03-05T17:17:44;16.77;;;5.68;;
40541;SDS011;49288;52.194;5.676;2023-03-05T17:22:47;6.13;;;3.90;;
40541;SDS011;49288;52.194;5.676;2023-03-05T17:27:49;9.57;;;4.55;;
40541;SDS011;49288;52.194;5.676;2023-03-05T17:32:52;18.90;;;5.65;;
40541;SDS011;49288;52.194;5.676;2023-03-05T17:37:55;8.73;;;5.28;;
40541;SDS011;49288;52.194;5.676;2023-03-05T17:42:57;15.80;;;5.43;;
40541;SDS011;49288;52.194;5.676;2023-03-05T17:48:00;12.63;;;5.70;;
40541;SDS011;49288;52.194;5.676;2023-03-05T17:53:03;9.40;;;4.65;;
40541;SDS011;49288;52.194;5.676;2023-03-05T17:58:06;9.60;;;5.03;;
40541;SDS011;49288;52.194;5.676;2023-03-05T18:03:09;10.43;;;4.85;;
40541;SDS011;49288;52.194;5.676;2023-03-05T18:08:12;11.40;;;5.03;;
40541;SDS011;49288;52.194;5.676;2023-03-05T18:13:15;13.15;;;5.70;;
40541;SDS011;49288;52.194;5.676;2023-03-05T18:18:37;6.25;;;3.30;;
40541;SDS011;49288;52.194;5.676;2023-03-05T18:23:40;9.23;;;4.05;;
40541;SDS011;49288;52.194;5.676;2023-03-05T18:28:42;12.38;;;4.80;;
40541;SDS011;49288;52.194;5.676;2023-03-05T18:33:45;10.48;;;4.20;;
40541;SDS011;49288;52.194;5.676;2023-03-05T18:38:48;9.88;;;3.55;;
40541;SDS011;49288;52.194;5.676;2023-03-05T18:43:51;7.88;;;3.40;;
40541;SDS011;49288;52.194;5.676;2023-03-05T18:48:56;5.45;;;3.15;;
40541;SDS011;49288;52.194;5.676;2023-03-05T18:53:59;7.10;;;2.45;;
40541;SDS011;49288;52.194;5.676;2023-03-05T18:59:02;8.32;;;2.97;;
40541;SDS011;49288;52.194;5.676;2023-03-05T19:04:04;9.48;;;2.95;;
40541;SDS011;49288;52.194;5.676;2023-03-05T19:09:08;11.40;;;2.60;;
40541;SDS011;49288;52.194;5.676;2023-03-05T19:14:20;10.93;;;3.05;;
40541;SDS011;49288;52.194;5.676;2023-03-05T19:19:23;5.93;;;2.65;;
40541;SDS011;49288;52.194;5.676;2023-03-05T19:24:27;7.28;;;2.90;;
40541;SDS011;49288;52.194;5.676;2023-03-05T19:29:30;8.18;;;2.47;;
40541;SDS011;49288;52.194;5.676;2023-03-05T19:34:34;10.07;;;2.75;;
40541;SDS011;49288;52.194;5.676;2023-03-05T19:39:37;4.47;;;2.30;;
40541;SDS011;49288;52.194;5.676;2023-03-05T19:44:40;7.40;;;2.60;;
40541;SDS011;49288;52.194;5.676;2023-03-05T19:49:43;7.10;;;3.13;;
40541;SDS011;49288;52.194;5.676;2023-03-05T19:54:46;11.05;;;3.08;;
40541;SDS011;49288;52.194;5.676;2023-03-05T19:59:50;6.97;;;2.85;;
40541;SDS011;49288;52.194;5.676;2023-03-05T20:04:53;5.15;;;2.45;;
40541;SDS011;49288;52.194;5.676;2023-03-05T20:09:56;11.85;;;3.47;;
40541;SDS011;49288;52.194;5.676;2023-03-05T20:14:58;7.82;;;2.83;;
40541;SDS011;49288;52.194;5.676;2023-03-05T20:20:01;8.68;;;3.25;;
40541;SDS011;49288;52.194;5.676;2023-03-05T20:25:04;10.68;;;3.70;;
40541;SDS011;49288;52.194;5.676;2023-03-05T20:30:10;9.18;;;3.50;;
40541;SDS011;49288;52.194;5.676;2023-03-05T20:35:17;10.10;;;3.40;;
40541;SDS011;49288;52.194;5.676;2023-03-05T20:40:20;7.85;;;2.80;;
40541;SDS011;49288;52.194;5.676;2023-03-05T20:45:23;9.65;;;4.18;;
40541;SDS011;49288;52.194;5.676;2023-03-05T20:50:26;9.13;;;4.13;;
40541;SDS011;49288;52.194;5.676;2023-03-05T20:55:29;10.43;;;4.32;;
40541;SDS011;49288;52.194;5.676;2023-03-05T21:00:32;16.83;;;5.05;;
40541;SDS011;49288;52.194;5.676;2023-03-05T21:05:35;11.57;;;4.00;;
40541;SDS011;49288;52.194;5.676;2023-03-05T21:10:38;7.35;;;4.05;;
40541;SDS011;49288;52.194;5.676;2023-03-05T21:15:41;11.35;;;4.07;;
40541;SDS011;49288;52.194;5.676;2023-03-05T21:20:44;9.13;;;4.45;;
40541;SDS011;49288;52.194;5.676;2023-03-05T21:25:47;16.48;;;4.60;;
40541;SDS011;49288;52.194;5.676;2023-03-05T21:30:53;13.50;;;4.47;;
40541;SDS011;49288;52.194;5.676;2023-03-05T21:35:56;11.52;;;5.43;;
40541;SDS011;49288;52.194;5.676;2023-03-05T21:40:59;10.48;;;5.30;;
40541;SDS011;49288;52.194;5.676;2023-03-05T21:46:03;11.32;;;5.65;;
40541;SDS011;49288;52.194;5.676;2023-03-05T21:51:06;14.63;;;5.43;;
40541;SDS011;49288;52.194;5.676;2023-03-05T21:56:10;10.97;;;4.67;;
40541;SDS011;49288;52.194;5.676;2023-03-05T22:01:13;15.40;;;5.60;;
40541;SDS011;49288;52.194;5.676;2023-03-05T22:06:22;9.48;;;4.55;;
40541;SDS011;49288;52.194;5.676;2023-03-05T22:11:24;12.57;;;5.40;;
40541;SDS011;49288;52.194;5.676;2023-03-05T22:16:27;16.52;;;6.25;;
40541;SDS011;49288;52.194;5.676;2023-03-05T22:21:30;17.48;;;4.88;;
40541;SDS011;49288;52.194;5.676;2023-03-05T22:26:34;11.18;;;4.90;;
40541;SDS011;49288;52.194;5.676;2023-03-05T22:31:39;10.25;;;4.88;;
40541;SDS011;49288;52.194;5.676;2023-03-05T22:36:41;10.50;;;4.70;;
40541;SDS011;49288;52.194;5.676;2023-03-05T22:41:44;11.25;;;4.93;;
40541;SDS011;49288;52.194;5.676;2023-03-05T22:46:47;12.25;;;4.95;;
40541;SDS011;49288;52.194;5.676;2023-03-05T22:51:52;10.88;;;4.47;;
40541;SDS011;49288;52.194;5.676;2023-03-05T22:56:54;8.98;;;4.53;;
40541;SDS011;49288;52.194;5.676;2023-03-05T23:01:57;11.02;;;4.70;;
40541;SDS011;49288;52.194;5.676;2023-03-05T23:07:00;8.55;;;4.32;;
40541;SDS011;49288;52.194;5.676;2023-03-05T23:12:03;8.00;;;3.80;;
40541;SDS011;49288;52.194;5.676;2023-03-05T23:17:06;10.40;;;4.32;;
40541;SDS011;49288;52.194;5.676;2023-03-05T23:22:09;6.78;;;4.18;;
40541;SDS011;49288;52.194;5.676;2023-03-05T23:32:16;13.48;;;4.97;;
40541;SDS011;49288;52.194;5.676;2023-03-05T23:37:19;12.00;;;4.53;;
40541;SDS011;49288;52.194;5.676;2023-03-05T23:42:23;12.52;;;4.18;;
40541;SDS011;49288;52.194;5.676;2023-03-05T23:47:25;10.20;;;5.03;;
40541;SDS011;49288;52.194;5.676;2023-03-05T23:52:28;11.93;;;4.72;;
40541;SDS011;49288;52.194;5.676;2023-03-05T23:57:30;7.15;;;4.22;;
